sensor_id;sensor_type;location;lat;lon;timestamp;pressure;altitude;pressure_sealevel;temperature;humidity
69247;BME280;56358;56.328;43.992;2024-01-07T00:01:50;100639.50;;;-24.39;65.95
69247;BME280;56358;56.328;43.992;2024-01-07T00:03:51;100638.06;;;-24.35;65.82
69247;BME280;56358;56.328;43.992;2024-01-07T00:05:52;100643.31;;;-24.32;65.72
69247;BME280;56358;56.328;43.992;2024-01-07T00:07:53;100642.84;;;-24.40;65.78
69247;BME280;56358;56.328;43.992;2024-01-07T00:09:54;100648.88;;;-24.24;65.85
69247;BME280;56358;56.328;43.992;2024-01-07T00:11:55;100577.97;;;-24.64;66.02
69247;BME280;56358;56.328;43.992;2024-01-07T00:13:55;100644.13;;;-24.20;65.76
69247;BME280;56358;56.328;43.992;2024-01-07T00:15:56;100631.34;;;-24.35;65.70
69247;BME280;56358;56.328;43.992;2024-01-07T00:17:57;100430.47;;;-25.42;65.48
69247;BME280;56358;56.328;43.992;2024-01-07T00:19:58;100650.47;;;-24.13;66.35
69247;BME280;56358;56.328;43.992;2024-01-07T00:21:58;100613.41;;;-24.24;66.63
69247;BME280;56358;56.328;43.992;2024-01-07T00:23:59;100666.50;;;-23.86;66.06
69247;BME280;56358;56.328;43.992;2024-01-07T00:26:00;100539.25;;;-24.49;65.80
69247;BME280;56358;56.328;43.992;2024-01-07T00:28:00;100664.72;;;-23.73;65.73
69247;BME280;56358;56.328;43.992;2024-01-07T00:30:03;100670.56;;;-23.88;65.37
69247;BME280;56358;56.328;43.992;2024-01-07T00:32:06;100658.00;;;-23.73;65.23
69247;BME280;56358;56.328;43.992;2024-01-07T00:34:06;100645.31;;;-23.73;65.24
69247;BME280;56358;56.328;43.992;2024-01-07T00:36:07;100591.38;;;-24.12;65.41
69247;BME280;56358;56.328;43.992;2024-01-07T00:38:08;100666.38;;;-23.60;65.74
69247;BME280;56358;56.328;43.992;2024-01-07T00:40:09;100665.84;;;-23.55;65.73
69247;BME280;56358;56.328;43.992;2024-01-07T00:42:10;100673.78;;;-23.50;65.42
69247;BME280;56358;56.328;43.992;2024-01-07T00:44:11;100668.69;;;-23.50;65.78
69247;BME280;56358;56.328;43.992;2024-01-07T00:46:12;100709.75;;;-23.42;66.36
69247;BME280;56358;56.328;43.992;2024-01-07T00:48:13;100672.75;;;-23.39;66.01
69247;BME280;56358;56.328;43.992;2024-01-07T00:50:15;100669.81;;;-23.45;65.70
69247;BME280;56358;56.328;43.992;2024-01-07T00:52:15;100681.56;;;-23.47;65.85
69247;BME280;56358;56.328;43.992;2024-01-07T00:54:16;100583.28;;;-24.06;66.13
69247;BME280;56358;56.328;43.992;2024-01-07T00:56:17;100655.16;;;-23.77;65.53
69247;BME280;56358;56.328;43.992;2024-01-07T00:58:18;100683.53;;;-23.56;65.47
69247;BME280;56358;56.328;43.992;2024-01-07T01:00:19;100679.91;;;-23.60;65.40
69247;BME280;56358;56.328;43.992;2024-01-07T01:02:19;100678.75;;;-23.65;64.99
69247;BME280;56358;56.328;43.992;2024-01-07T01:04:20;100665.81;;;-23.83;65.59
69247;BME280;56358;56.328;43.992;2024-01-07T01:06:21;100681.28;;;-23.78;65.86
69247;BME280;56358;56.328;43.992;2024-01-07T01:08:22;100684.13;;;-23.74;66.14
69247;BME280;56358;56.328;43.992;2024-01-07T01:10:23;100656.56;;;-23.96;65.49
69247;BME280;56358;56.328;43.992;2024-01-07T01:12:24;100650.34;;;-24.01;65.35
69247;BME280;56358;56.328;43.992;2024-01-07T01:14:25;100658.25;;;-23.96;65.36
69247;BME280;56358;56.328;43.992;2024-01-07T01:16:26;100648.03;;;-24.11;65.58
69247;BME280;56358;56.328;43.992;2024-01-07T01:18:27;100691.06;;;-23.85;65.80
69247;BME280;56358;56.328;43.992;2024-01-07T01:20:28;100702.00;;;-23.86;65.51
69247;BME280;56358;56.328;43.992;2024-01-07T01:22:29;100705.66;;;-23.95;65.17
69247;BME280;56358;56.328;43.992;2024-01-07T01:24:29;100712.66;;;-24.05;65.57
69247;BME280;56358;56.328;43.992;2024-01-07T01:26:30;100701.25;;;-24.11;65.43
69247;BME280;56358;56.328;43.992;2024-01-07T01:28:31;100581.03;;;-24.95;65.26
69247;BME280;56358;56.328;43.992;2024-01-07T01:30:32;100707.47;;;-24.33;64.90
69247;BME280;56358;56.328;43.992;2024-01-07T01:32:33;100730.72;;;-24.39;65.00
69247;BME280;56358;56.328;43.992;2024-01-07T01:34:33;100709.31;;;-24.44;65.11
69247;BME280;56358;56.328;43.992;2024-01-07T01:36:34;100707.31;;;-24.48;65.13
69247;BME280;56358;56.328;43.992;2024-01-07T01:38:35;100710.75;;;-24.48;65.29
69247;BME280;56358;56.328;43.992;2024-01-07T01:40:36;100705.78;;;-24.46;65.35
69247;BME280;56358;56.328;43.992;2024-01-07T01:42:37;100699.13;;;-24.57;64.76
69247;BME280;56358;56.328;43.992;2024-01-07T01:44:37;100746.00;;;-24.51;64.74
69247;BME280;56358;56.328;43.992;2024-01-07T01:46:38;100689.56;;;-24.75;64.56
69247;BME280;56358;56.328;43.992;2024-01-07T01:48:40;100717.25;;;-24.64;64.51
69247;BME280;56358;56.328;43.992;2024-01-07T01:50:41;100502.94;;;-26.07;64.52
69247;BME280;56358;56.328;43.992;2024-01-07T01:52:43;100726.66;;;-24.75;65.56
69247;BME280;56358;56.328;43.992;2024-01-07T01:54:45;100696.13;;;-24.90;65.90
69247;BME280;56358;56.328;43.992;2024-01-07T01:56:46;100738.94;;;-24.68;65.60
69247;BME280;56358;56.328;43.992;2024-01-07T01:58:48;100733.13;;;-24.67;65.52
69247;BME280;56358;56.328;43.992;2024-01-07T02:00:48;100607.69;;;-25.39;65.15
69247;BME280;56358;56.328;43.992;2024-01-07T02:02:51;100726.47;;;-24.78;65.21
69247;BME280;56358;56.328;43.992;2024-01-07T02:04:52;100730.50;;;-24.69;65.14
69247;BME280;56358;56.328;43.992;2024-01-07T02:06:52;100738.00;;;-24.70;64.48
69247;BME280;56358;56.328;43.992;2024-01-07T02:08:54;100740.09;;;-24.76;64.70
69247;BME280;56358;56.328;43.992;2024-01-07T02:10:55;100717.50;;;-24.87;65.34
69247;BME280;56358;56.328;43.992;2024-01-07T02:12:57;100729.03;;;-24.90;65.41
69247;BME280;56358;56.328;43.992;2024-01-07T02:14:58;100749.97;;;-24.68;64.85
69247;BME280;56358;56.328;43.992;2024-01-07T02:16:59;100773.06;;;-24.63;65.02
69247;BME280;56358;56.328;43.992;2024-01-07T02:19:00;100747.53;;;-24.66;65.10
69247;BME280;56358;56.328;43.992;2024-01-07T02:21:00;100746.97;;;-24.62;65.08
69247;BME280;56358;56.328;43.992;2024-01-07T02:23:03;100731.34;;;-24.68;64.86
69247;BME280;56358;56.328;43.992;2024-01-07T02:25:04;100751.94;;;-24.50;65.00
69247;BME280;56358;56.328;43.992;2024-01-07T02:27:05;100760.34;;;-24.38;64.62
69247;BME280;56358;56.328;43.992;2024-01-07T02:29:06;100769.81;;;-24.35;64.52
69247;BME280;56358;56.328;43.992;2024-01-07T02:31:07;100763.09;;;-24.35;64.17
69247;BME280;56358;56.328;43.992;2024-01-07T02:33:08;100767.44;;;-24.45;63.96
69247;BME280;56358;56.328;43.992;2024-01-07T02:35:09;100771.94;;;-24.41;63.44
69247;BME280;56358;56.328;43.992;2024-01-07T02:37:10;100760.31;;;-24.51;63.83
69247;BME280;56358;56.328;43.992;2024-01-07T02:39:10;100693.50;;;-24.92;64.89
69247;BME280;56358;56.328;43.992;2024-01-07T02:41:11;100764.72;;;-24.49;64.87
69247;BME280;56358;56.328;43.992;2024-01-07T02:43:12;100767.34;;;-24.47;64.35
69247;BME280;56358;56.328;43.992;2024-01-07T02:45:13;100763.38;;;-24.43;64.69
69247;BME280;56358;56.328;43.992;2024-01-07T02:47:13;100755.06;;;-24.54;64.87
69247;BME280;56358;56.328;43.992;2024-01-07T02:49:14;100810.47;;;-24.34;65.30
69247;BME280;56358;56.328;43.992;2024-01-07T02:51:15;100758.09;;;-24.46;65.37
69247;BME280;56358;56.328;43.992;2024-01-07T02:53:15;100786.06;;;-24.20;65.12
69247;BME280;56358;56.328;43.992;2024-01-07T02:55:16;100808.63;;;-24.23;64.45
69247;BME280;56358;56.328;43.992;2024-01-07T02:57:17;100790.19;;;-24.34;63.95
69247;BME280;56358;56.328;43.992;2024-01-07T02:59:18;100797.69;;;-24.35;64.29
69247;BME280;56358;56.328;43.992;2024-01-07T03:01:21;100802.56;;;-24.38;63.86
69247;BME280;56358;56.328;43.992;2024-01-07T03:03:23;100803.56;;;-24.48;64.08
69247;BME280;56358;56.328;43.992;2024-01-07T03:05:24;100718.72;;;-24.93;64.12
69247;BME280;56358;56.328;43.992;2024-01-07T03:07:25;100759.09;;;-24.70;64.35
69247;BME280;56358;56.328;43.992;2024-01-07T03:09:25;100828.81;;;-24.50;64.19
69247;BME280;56358;56.328;43.992;2024-01-07T03:11:26;100806.28;;;-24.58;64.03
69247;BME280;56358;56.328;43.992;2024-01-07T03:13:27;100831.41;;;-24.61;64.13
69247;BME280;56358;56.328;43.992;2024-01-07T03:15:28;100805.69;;;-24.68;64.13
69247;BME280;56358;56.328;43.992;2024-01-07T03:17:30;100813.28;;;-24.68;64.32
69247;BME280;56358;56.328;43.992;2024-01-07T03:19:31;100807.78;;;-24.74;64.38
69247;BME280;56358;56.328;43.992;2024-01-07T03:21:32;100718.84;;;-25.29;64.45
69247;BME280;56358;56.328;43.992;2024-01-07T03:23:32;100723.44;;;-25.23;64.67
69247;BME280;56358;56.328;43.992;2024-01-07T03:25:33;100721.00;;;-25.22;65.05
69247;BME280;56358;56.328;43.992;2024-01-07T03:27:34;100823.13;;;-24.59;65.16
69247;BME280;56358;56.328;43.992;2024-01-07T03:29:35;100858.44;;;-24.49;65.16
69247;BME280;56358;56.328;43.992;2024-01-07T03:31:36;100827.28;;;-24.48;64.71
69247;BME280;56358;56.328;43.992;2024-01-07T03:33:38;100819.09;;;-24.43;64.34
69247;BME280;56358;56.328;43.992;2024-01-07T03:35:39;100826.50;;;-24.46;64.36
69247;BME280;56358;56.328;43.992;2024-01-07T03:37:40;100797.53;;;-24.63;64.20
69247;BME280;56358;56.328;43.992;2024-01-07T03:39:41;100698.69;;;-25.27;64.36
69247;BME280;56358;56.328;43.992;2024-01-07T03:41:42;100823.66;;;-24.51;64.15
69247;BME280;56358;56.328;43.992;2024-01-07T03:43:42;100834.78;;;-24.49;63.98
69247;BME280;56358;56.328;43.992;2024-01-07T03:45:43;100818.84;;;-24.60;64.03
69247;BME280;56358;56.328;43.992;2024-01-07T03:47:44;100807.13;;;-24.71;63.86
69247;BME280;56358;56.328;43.992;2024-01-07T03:49:44;100824.78;;;-24.59;63.99
69247;BME280;56358;56.328;43.992;2024-01-07T03:51:45;100825.56;;;-24.60;64.21
69247;BME280;56358;56.328;43.992;2024-01-07T03:53:46;100814.81;;;-24.70;64.50
69247;BME280;56358;56.328;43.992;2024-01-07T03:55:47;100808.22;;;-24.68;65.11
69247;BME280;56358;56.328;43.992;2024-01-07T03:57:47;100623.88;;;-25.74;65.68
69247;BME280;56358;56.328;43.992;2024-01-07T03:59:48;100841.03;;;-24.44;65.20
69247;BME280;56358;56.328;43.992;2024-01-07T04:01:49;100616.19;;;-25.76;64.85
69247;BME280;56358;56.328;43.992;2024-01-07T04:03:49;100837.84;;;-24.67;64.43
69247;BME280;56358;56.328;43.992;2024-01-07T04:05:50;100688.91;;;-25.48;64.07
69247;BME280;56358;56.328;43.992;2024-01-07T04:07:51;100841.53;;;-24.61;64.11
69247;BME280;56358;56.328;43.992;2024-01-07T04:09:51;100837.19;;;-24.64;64.70
69247;BME280;56358;56.328;43.992;2024-01-07T04:11:52;100712.09;;;-25.28;64.93
69247;BME280;56358;56.328;43.992;2024-01-07T04:13:53;100796.72;;;-24.88;64.53
69247;BME280;56358;56.328;43.992;2024-01-07T04:15:53;100803.66;;;-24.85;64.25
69247;BME280;56358;56.328;43.992;2024-01-07T04:17:54;100692.72;;;-25.41;64.64
69247;BME280;56358;56.328;43.992;2024-01-07T04:19:55;100708.81;;;-25.27;65.03
69247;BME280;56358;56.328;43.992;2024-01-07T04:21:56;100840.03;;;-24.46;64.46
69247;BME280;56358;56.328;43.992;2024-01-07T04:23:57;100846.63;;;-24.48;64.63
69247;BME280;56358;56.328;43.992;2024-01-07T04:25:57;100843.69;;;-24.68;64.26
69247;BME280;56358;56.328;43.992;2024-01-07T04:27:58;100855.47;;;-24.55;64.07
69247;BME280;56358;56.328;43.992;2024-01-07T04:29:59;100860.84;;;-24.63;64.30
69247;BME280;56358;56.328;43.992;2024-01-07T04:31:59;100865.81;;;-24.77;64.31
69247;BME280;56358;56.328;43.992;2024-01-07T04:34:00;100871.91;;;-24.87;64.63
69247;BME280;56358;56.328;43.992;2024-01-07T04:36:01;100893.69;;;-24.89;64.82
69247;BME280;56358;56.328;43.992;2024-01-07T04:38:02;100879.50;;;-24.87;65.09
69247;BME280;56358;56.328;43.992;2024-01-07T04:40:02;100847.84;;;-25.05;65.32
69247;BME280;56358;56.328;43.992;2024-01-07T04:42:07;100883.91;;;-24.84;65.67
69247;BME280;56358;56.328;43.992;2024-01-07T04:44:07;100869.94;;;-24.91;65.56
69247;BME280;56358;56.328;43.992;2024-01-07T04:46:08;100907.34;;;-24.87;65.37
69247;BME280;56358;56.328;43.992;2024-01-07T04:48:11;100862.38;;;-25.03;65.55
69247;BME280;56358;56.328;43.992;2024-01-07T04:50:12;100868.09;;;-25.05;65.81
69247;BME280;56358;56.328;43.992;2024-01-07T04:52:14;100877.84;;;-24.98;65.72
69247;BME280;56358;56.328;43.992;2024-01-07T04:54:15;100765.22;;;-25.65;65.78
69247;BME280;56358;56.328;43.992;2024-01-07T04:56:15;100892.94;;;-24.88;66.15
69247;BME280;56358;56.328;43.992;2024-01-07T04:58:16;100791.03;;;-25.46;65.98
69247;BME280;56358;56.328;43.992;2024-01-07T05:00:17;100896.56;;;-24.84;66.08
69247;BME280;56358;56.328;43.992;2024-01-07T05:02:18;100880.94;;;-24.90;65.92
69247;BME280;56358;56.328;43.992;2024-01-07T05:04:18;100891.28;;;-24.87;65.84
69247;BME280;56358;56.328;43.992;2024-01-07T05:06:19;100906.13;;;-24.80;65.93
69247;BME280;56358;56.328;43.992;2024-01-07T05:08:20;100902.16;;;-24.76;66.25
69247;BME280;56358;56.328;43.992;2024-01-07T05:10:21;100899.50;;;-24.78;66.39
69247;BME280;56358;56.328;43.992;2024-01-07T05:12:21;100909.41;;;-24.69;66.07
69247;BME280;56358;56.328;43.992;2024-01-07T05:14:22;100879.38;;;-24.88;65.80
69247;BME280;56358;56.328;43.992;2024-01-07T05:16:23;100875.09;;;-24.89;65.75
69247;BME280;56358;56.328;43.992;2024-01-07T05:18:24;100898.19;;;-24.73;65.56
69247;BME280;56358;56.328;43.992;2024-01-07T05:20:25;100915.56;;;-24.66;65.77
69247;BME280;56358;56.328;43.992;2024-01-07T05:22:26;100915.84;;;-24.61;65.94
69247;BME280;56358;56.328;43.992;2024-01-07T05:24:26;100916.16;;;-24.56;65.92
69247;BME280;56358;56.328;43.992;2024-01-07T05:26:27;100928.16;;;-24.54;65.88
69247;BME280;56358;56.328;43.992;2024-01-07T05:28:28;100933.78;;;-24.46;65.94
69247;BME280;56358;56.328;43.992;2024-01-07T05:30:28;100903.50;;;-24.56;65.24
69247;BME280;56358;56.328;43.992;2024-01-07T05:32:29;100919.25;;;-24.49;65.29
69247;BME280;56358;56.328;43.992;2024-01-07T05:34:30;100916.03;;;-24.46;65.35
69247;BME280;56358;56.328;43.992;2024-01-07T05:36:31;100931.13;;;-24.48;64.90
69247;BME280;56358;56.328;43.992;2024-01-07T05:38:31;100913.59;;;-24.70;64.57
69247;BME280;56358;56.328;43.992;2024-01-07T05:40:32;100931.97;;;-24.72;64.83
69247;BME280;56358;56.328;43.992;2024-01-07T05:42:33;100957.09;;;-24.75;64.93
69247;BME280;56358;56.328;43.992;2024-01-07T05:44:33;100935.41;;;-24.84;64.78
69247;BME280;56358;56.328;43.992;2024-01-07T05:46:38;100949.19;;;-24.92;65.40
69247;BME280;56358;56.328;43.992;2024-01-07T05:48:43;100960.63;;;-24.97;65.28
69247;BME280;56358;56.328;43.992;2024-01-07T05:50:47;100830.50;;;-25.72;65.33
69247;BME280;56358;56.328;43.992;2024-01-07T05:52:48;100941.47;;;-25.05;65.83
69247;BME280;56358;56.328;43.992;2024-01-07T05:54:48;100949.19;;;-25.04;66.19
69247;BME280;56358;56.328;43.992;2024-01-07T05:56:49;100953.78;;;-24.86;66.13
69247;BME280;56358;56.328;43.992;2024-01-07T05:58:50;100957.34;;;-24.84;66.34
69247;BME280;56358;56.328;43.992;2024-01-07T06:00:51;100964.59;;;-24.77;66.31
69247;BME280;56358;56.328;43.992;2024-01-07T06:02:51;100866.91;;;-25.34;66.02
69247;BME280;56358;56.328;43.992;2024-01-07T06:04:52;100961.69;;;-24.82;65.75
69247;BME280;56358;56.328;43.992;2024-01-07T06:06:53;100959.63;;;-24.87;65.62
69247;BME280;56358;56.328;43.992;2024-01-07T06:08:53;100961.63;;;-25.07;65.48
69247;BME280;56358;56.328;43.992;2024-01-07T06:10:54;100967.09;;;-25.01;65.52
69247;BME280;56358;56.328;43.992;2024-01-07T06:12:55;100971.84;;;-25.05;66.13
69247;BME280;56358;56.328;43.992;2024-01-07T06:14:56;100985.47;;;-25.03;66.18
69247;BME280;56358;56.328;43.992;2024-01-07T06:16:56;100982.09;;;-25.04;66.52
69247;BME280;56358;56.328;43.992;2024-01-07T06:18:57;100999.34;;;-24.98;66.64
69247;BME280;56358;56.328;43.992;2024-01-07T06:20:58;100893.53;;;-25.51;66.33
69247;BME280;56358;56.328;43.992;2024-01-07T06:22:59;101000.38;;;-24.96;66.32
69247;BME280;56358;56.328;43.992;2024-01-07T06:24:59;101001.44;;;-24.92;66.39
69247;BME280;56358;56.328;43.992;2024-01-07T06:27:00;100993.44;;;-24.87;66.73
69247;BME280;56358;56.328;43.992;2024-01-07T06:29:04;100999.81;;;-24.80;66.84
69247;BME280;56358;56.328;43.992;2024-01-07T06:31:05;100974.16;;;-24.96;66.15
69247;BME280;56358;56.328;43.992;2024-01-07T06:33:05;100996.63;;;-24.89;66.04
69247;BME280;56358;56.328;43.992;2024-01-07T06:35:06;100878.56;;;-25.60;66.26
69247;BME280;56358;56.328;43.992;2024-01-07T06:37:07;101020.50;;;-24.86;66.21
69247;BME280;56358;56.328;43.992;2024-01-07T06:39:11;101001.03;;;-24.87;66.28
69247;BME280;56358;56.328;43.992;2024-01-07T06:41:11;100959.41;;;-25.14;66.49
69247;BME280;56358;56.328;43.992;2024-01-07T06:43:13;101016.34;;;-24.73;66.73
69247;BME280;56358;56.328;43.992;2024-01-07T06:45:16;101001.00;;;-24.63;66.63
69247;BME280;56358;56.328;43.992;2024-01-07T06:47:17;101007.81;;;-24.50;66.52
69247;BME280;56358;56.328;43.992;2024-01-07T06:49:17;101009.13;;;-24.43;65.84
69247;BME280;56358;56.328;43.992;2024-01-07T06:51:18;100997.16;;;-24.70;65.77
69247;BME280;56358;56.328;43.992;2024-01-07T06:53:19;100884.03;;;-25.30;65.09
69247;BME280;56358;56.328;43.992;2024-01-07T06:55:20;100999.94;;;-24.67;64.94
69247;BME280;56358;56.328;43.992;2024-01-07T06:57:20;101034.66;;;-24.52;65.03
69247;BME280;56358;56.328;43.992;2024-01-07T06:59:21;101023.56;;;-24.54;65.52
69247;BME280;56358;56.328;43.992;2024-01-07T07:01:22;101005.72;;;-24.56;65.49
69247;BME280;56358;56.328;43.992;2024-01-07T07:03:26;101028.72;;;-24.41;65.51
69247;BME280;56358;56.328;43.992;2024-01-07T07:05:26;100890.66;;;-25.20;65.33
69247;BME280;56358;56.328;43.992;2024-01-07T07:07:27;101036.41;;;-24.27;65.17
69247;BME280;56358;56.328;43.992;2024-01-07T07:09:28;101031.66;;;-24.35;65.08
69247;BME280;56358;56.328;43.992;2024-01-07T07:11:28;101030.22;;;-24.19;65.47
69247;BME280;56358;56.328;43.992;2024-01-07T07:13:29;101051.16;;;-24.10;65.49
69247;BME280;56358;56.328;43.992;2024-01-07T07:15:30;101046.72;;;-24.01;65.11
69247;BME280;56358;56.328;43.992;2024-01-07T07:17:31;101039.22;;;-23.99;64.56
69247;BME280;56358;56.328;43.992;2024-01-07T07:19:31;101045.97;;;-24.00;64.61
69247;BME280;56358;56.328;43.992;2024-01-07T07:21:32;101048.03;;;-23.94;64.75
69247;BME280;56358;56.328;43.992;2024-01-07T07:23:33;100927.44;;;-24.64;64.80
69247;BME280;56358;56.328;43.992;2024-01-07T07:25:34;100945.88;;;-24.42;64.49
69247;BME280;56358;56.328;43.992;2024-01-07T07:27:34;101055.94;;;-23.64;64.36
69247;BME280;56358;56.328;43.992;2024-01-07T07:29:35;101068.56;;;-23.77;64.20
69247;BME280;56358;56.328;43.992;2024-01-07T07:31:36;101035.50;;;-23.79;63.98
69247;BME280;56358;56.328;43.992;2024-01-07T07:33:40;101099.41;;;-23.59;63.37
69247;BME280;56358;56.328;43.992;2024-01-07T07:35:41;101025.03;;;-23.84;63.72
69247;BME280;56358;56.328;43.992;2024-01-07T07:37:42;101071.47;;;-23.48;64.10
69247;BME280;56358;56.328;43.992;2024-01-07T07:39:43;101065.00;;;-23.42;63.38
69247;BME280;56358;56.328;43.992;2024-01-07T07:41:44;100971.75;;;-23.97;63.39
69247;BME280;56358;56.328;43.992;2024-01-07T07:43:44;101065.59;;;-23.47;62.98
69247;BME280;56358;56.328;43.992;2024-01-07T07:45:45;101067.44;;;-23.44;63.07
69247;BME280;56358;56.328;43.992;2024-01-07T07:47:47;100953.31;;;-24.20;63.38
69247;BME280;56358;56.328;43.992;2024-01-07T07:49:47;101081.91;;;-23.43;63.23
69247;BME280;56358;56.328;43.992;2024-01-07T07:51:50;101078.16;;;-23.48;63.14
69247;BME280;56358;56.328;43.992;2024-01-07T07:53:51;101033.06;;;-23.77;63.24
69247;BME280;56358;56.328;43.992;2024-01-07T07:55:52;101070.03;;;-23.56;63.77
69247;BME280;56358;56.328;43.992;2024-01-07T07:57:53;100990.22;;;-24.11;64.24
69247;BME280;56358;56.328;43.992;2024-01-07T07:59:54;101062.63;;;-23.78;64.27
69247;BME280;56358;56.328;43.992;2024-01-07T08:01:55;101073.03;;;-23.61;64.46
69247;BME280;56358;56.328;43.992;2024-01-07T08:03:56;101068.91;;;-23.73;64.58
69247;BME280;56358;56.328;43.992;2024-01-07T08:05:57;101073.97;;;-23.73;64.98
69247;BME280;56358;56.328;43.992;2024-01-07T08:07:57;101034.25;;;-23.98;65.27
69247;BME280;56358;56.328;43.992;2024-01-07T08:09:58;101066.34;;;-23.73;65.28
69247;BME280;56358;56.328;43.992;2024-01-07T08:11:59;101086.16;;;-23.55;65.83
69247;BME280;56358;56.328;43.992;2024-01-07T08:14:00;101099.47;;;-23.46;65.58
69247;BME280;56358;56.328;43.992;2024-01-07T08:16:03;100957.47;;;-24.08;65.46
69247;BME280;56358;56.328;43.992;2024-01-07T08:18:04;101093.22;;;-23.26;65.42
69247;BME280;56358;56.328;43.992;2024-01-07T08:20:06;101079.44;;;-23.30;65.09
69247;BME280;56358;56.328;43.992;2024-01-07T08:22:07;101072.28;;;-23.35;65.07
69247;BME280;56358;56.328;43.992;2024-01-07T08:24:07;101101.13;;;-23.08;65.01
69247;BME280;56358;56.328;43.992;2024-01-07T08:26:10;101104.09;;;-23.02;65.32
69247;BME280;56358;56.328;43.992;2024-01-07T08:28:11;101091.03;;;-22.94;65.10
69247;BME280;56358;56.328;43.992;2024-01-07T08:30:12;101084.06;;;-22.97;65.00
69247;BME280;56358;56.328;43.992;2024-01-07T08:32:14;101077.03;;;-23.01;64.77
69247;BME280;56358;56.328;43.992;2024-01-07T08:34:15;101017.31;;;-23.35;64.69
69247;BME280;56358;56.328;43.992;2024-01-07T08:36:16;101105.19;;;-22.85;64.92
69247;BME280;56358;56.328;43.992;2024-01-07T08:38:17;101129.16;;;-22.81;65.43
69247;BME280;56358;56.328;43.992;2024-01-07T08:40:17;101074.69;;;-22.98;64.71
69247;BME280;56358;56.328;43.992;2024-01-07T08:42:20;101088.47;;;-22.94;64.64
69247;BME280;56358;56.328;43.992;2024-01-07T08:44:21;101111.31;;;-22.69;64.92
69247;BME280;56358;56.328;43.992;2024-01-07T08:46:22;101024.28;;;-23.19;64.59
69247;BME280;56358;56.328;43.992;2024-01-07T08:48:22;101124.88;;;-22.69;64.14
69247;BME280;56358;56.328;43.992;2024-01-07T08:50:23;101119.03;;;-22.68;64.19
69247;BME280;56358;56.328;43.992;2024-01-07T08:52:24;101039.72;;;-23.16;64.40
69247;BME280;56358;56.328;43.992;2024-01-07T08:54:25;101121.66;;;-22.66;63.68
69247;BME280;56358;56.328;43.992;2024-01-07T08:56:26;101120.78;;;-22.67;63.50
69247;BME280;56358;56.328;43.992;2024-01-07T08:58:26;101137.59;;;-22.69;63.27
69247;BME280;56358;56.328;43.992;2024-01-07T09:00:27;101125.38;;;-22.74;63.31
69247;BME280;56358;56.328;43.992;2024-01-07T09:02:31;101128.22;;;-22.70;63.62
69247;BME280;56358;56.328;43.992;2024-01-07T09:04:32;101111.72;;;-22.63;63.65
69247;BME280;56358;56.328;43.992;2024-01-07T09:06:34;101117.97;;;-22.58;63.74
69247;BME280;56358;56.328;43.992;2024-01-07T09:08:35;101115.94;;;-22.50;63.92
69247;BME280;56358;56.328;43.992;2024-01-07T09:10:36;101128.03;;;-22.46;63.68
69247;BME280;56358;56.328;43.992;2024-01-07T09:12:37;101115.66;;;-22.41;63.56
69247;BME280;56358;56.328;43.992;2024-01-07T09:14:38;101085.72;;;-22.59;63.83
69247;BME280;56358;56.328;43.992;2024-01-07T09:16:39;101119.06;;;-22.41;63.28
69247;BME280;56358;56.328;43.992;2024-01-07T09:18:39;101115.06;;;-22.37;63.08
69247;BME280;56358;56.328;43.992;2024-01-07T09:20:40;101121.91;;;-22.36;62.67
69247;BME280;56358;56.328;43.992;2024-01-07T09:22:41;101131.97;;;-22.38;62.90
69247;BME280;56358;56.328;43.992;2024-01-07T09:24:44;101129.41;;;-22.38;62.75
69247;BME280;56358;56.328;43.992;2024-01-07T09:26:44;101139.59;;;-22.38;63.02
69247;BME280;56358;56.328;43.992;2024-01-07T09:28:45;101013.25;;;-23.06;62.80
69247;BME280;56358;56.328;43.992;2024-01-07T09:30:46;101131.69;;;-22.42;62.21
69247;BME280;56358;56.328;43.992;2024-01-07T09:32:47;101122.00;;;-22.48;62.01
69247;BME280;56358;56.328;43.992;2024-01-07T09:34:47;101123.63;;;-22.62;62.10
69247;BME280;56358;56.328;43.992;2024-01-07T09:36:48;101111.56;;;-22.78;62.23
69247;BME280;56358;56.328;43.992;2024-01-07T09:38:49;101149.88;;;-22.88;62.78
69247;BME280;56358;56.328;43.992;2024-01-07T09:40:50;101001.47;;;-23.69;63.18
69247;BME280;56358;56.328;43.992;2024-01-07T09:42:51;101124.31;;;-23.03;63.62
69247;BME280;56358;56.328;43.992;2024-01-07T09:44:51;101135.09;;;-22.94;63.90
69247;BME280;56358;56.328;43.992;2024-01-07T09:46:53;101139.81;;;-22.87;64.08
69247;BME280;56358;56.328;43.992;2024-01-07T09:48:54;101130.59;;;-22.85;64.13
69247;BME280;56358;56.328;43.992;2024-01-07T09:50:57;101123.13;;;-22.83;64.11
69247;BME280;56358;56.328;43.992;2024-01-07T09:53:02;101132.22;;;-22.73;64.13
69247;BME280;56358;56.328;43.992;2024-01-07T09:55:03;101095.53;;;-22.90;63.99
69247;BME280;56358;56.328;43.992;2024-01-07T09:57:06;101108.47;;;-22.74;64.11
69247;BME280;56358;56.328;43.992;2024-01-07T09:59:11;101118.66;;;-22.60;64.25
69247;BME280;56358;56.328;43.992;2024-01-07T10:01:12;101098.59;;;-22.69;63.96
69247;BME280;56358;56.328;43.992;2024-01-07T10:03:13;101107.41;;;-22.64;64.03
69247;BME280;56358;56.328;43.992;2024-01-07T10:05:14;101024.00;;;-23.23;64.00
69247;BME280;56358;56.328;43.992;2024-01-07T10:07:15;101112.16;;;-22.82;64.30
69247;BME280;56358;56.328;43.992;2024-01-07T10:09:17;101119.41;;;-22.75;64.02
69247;BME280;56358;56.328;43.992;2024-01-07T10:11:18;101104.06;;;-22.76;64.29
69247;BME280;56358;56.328;43.992;2024-01-07T10:13:20;101133.75;;;-22.75;64.25
69247;BME280;56358;56.328;43.992;2024-01-07T10:15:23;101146.69;;;-22.72;64.25
69247;BME280;56358;56.328;43.992;2024-01-07T10:17:24;101130.53;;;-22.73;64.57